Time;durP1;ratioP1;P1;durP2;ratioP2;P2;SDS_P1;SDS_P2;PMS_P1;PMS_P2;Temp;Humidity;BMP_temperature;BMP_pressure;BME280_temperature;BME280_humidity;BME280_pressure;Samples;Min_cycle;Max_cycle;Signal;HPM_P1;HPM_P2
2021/09/16 00:02:01;;;;;;;13.45;6.62;;;;;;;9.11;61.80;100515.66;1730723;80;20999;-70
2021/09/16 00:04:27;;;;;;;11.33;6.50;;;;;;;9.10;61.87;100516.62;1755494;80;22202;-70
2021/09/16 00:06:54;;;;;;;12.23;6.80;;;;;;;9.09;61.93;100513.14;1768180;80;21082;-70
2021/09/16 00:09:21;;;;;;;13.90;7.33;;;;;;;9.07;61.99;100515.05;1761817;80;21424;-70
2021/09/16 00:11:48;;;;;;;14.18;7.22;;;;;;;9.07;62.04;100514.18;1754586;80;21407;-70
2021/09/16 00:14:14;;;;;;;11.40;6.35;;;;;;;9.05;62.17;100514.30;1767298;80;21024;-70
2021/09/16 00:16:42;;;;;;;12.07;6.90;;;;;;;9.03;62.15;100518.84;1753570;80;20917;-70
2021/09/16 00:19:09;;;;;;;11.78;6.92;;;;;;;8.99;62.17;100521.34;1750931;80;21448;-70
2021/09/16 00:21:37;;;;;;;15.53;8.08;;;;;;;8.94;62.22;100520.80;1767983;80;20988;-70
2021/09/16 00:24:05;;;;;;;18.92;8.93;;;;;;;8.91;62.30;100520.19;1774284;80;21090;-70
2021/09/16 00:26:31;;;;;;;18.40;8.63;;;;;;;8.86;62.38;100516.53;1752479;80;20999;-70
2021/09/16 00:28:58;;;;;;;17.10;9.83;;;;;;;8.83;62.40;100517.60;1753601;80;21820;-70
2021/09/16 00:31:25;;;;;;;19.50;9.78;;;;;;;8.78;62.44;100522.81;1751599;80;21090;-70
2021/09/16 00:33:53;;;;;;;18.98;10.25;;;;;;;8.74;62.53;100526.62;1772736;80;20944;-70
2021/09/16 00:36:20;;;;;;;21.05;10.72;;;;;;;8.71;62.56;100522.89;1755950;80;20948;-70
2021/09/16 00:38:47;;;;;;;21.15;10.88;;;;;;;8.68;62.57;100519.13;1753605;80;20993;-71
2021/09/16 00:41:15;;;;;;;18.60;10.53;;;;;;;8.65;62.66;100526.78;1753095;80;21827;-70
2021/09/16 00:43:42;;;;;;;19.30;10.38;;;;;;;8.63;62.77;100513.36;1747526;82;20928;-70
2021/09/16 00:46:08;;;;;;;21.87;11.38;;;;;;;8.62;62.88;100518.26;1750617;80;21004;-71
2021/09/16 00:48:34;;;;;;;23.73;12.10;;;;;;;8.62;62.98;100514.31;1735532;80;21020;-71
2021/09/16 00:51:02;;;;;;;21.23;11.12;;;;;;;8.58;63.04;100522.39;1753394;80;20968;-70
2021/09/16 00:53:32;;;;;;;26.62;12.23;;;;;;;8.57;63.00;100521.19;1756225;80;20956;-71
2021/09/16 00:55:59;;;;;;;24.12;11.57;;;;;;;8.54;62.97;100518.30;1773336;80;21407;-71
2021/09/16 00:58:26;;;;;;;20.32;11.30;;;;;;;8.50;63.00;100519.47;1757660;80;21023;-70
2021/09/16 01:00:55;;;;;;;23.32;11.55;;;;;;;8.48;63.03;100517.39;1757165;80;21526;-71
2021/09/16 01:03:24;;;;;;;20.82;11.20;;;;;;;8.48;63.04;100529.72;1751988;80;21499;-71
2021/09/16 01:05:51;;;;;;;20.68;11.80;;;;;;;8.45;63.09;100523.36;1748583;80;21843;-72
2021/09/16 01:08:19;;;;;;;23.73;12.15;;;;;;;8.42;63.21;100519.63;1729413;82;21013;-71
2021/09/16 01:10:45;;;;;;;25.72;13.05;;;;;;;8.41;63.38;100516.62;1759148;80;21036;-70
2021/09/16 01:13:13;;;;;;;24.27;12.85;;;;;;;8.40;63.47;100521.05;1762153;80;20996;-70
2021/09/16 01:15:39;;;;;;;27.52;14.00;;;;;;;8.41;63.51;100513.52;1750092;80;20980;-70
2021/09/16 01:18:06;;;;;;;28.30;14.38;;;;;;;8.40;63.51;100523.68;1750839;80;22665;-70
2021/09/16 01:20:33;;;;;;;28.17;13.55;;;;;;;8.38;63.58;100523.39;1748463;80;20968;-70
2021/09/16 01:23:00;;;;;;;25.25;13.05;;;;;;;8.37;63.46;100520.39;1768874;79;20988;-70
2021/09/16 01:25:28;;;;;;;27.73;13.98;;;;;;;8.33;63.47;100517.11;1772735;80;21431;-70
2021/09/16 01:27:55;;;;;;;25.75;13.35;;;;;;;8.30;63.49;100521.27;1758806;80;21042;-70
2021/09/16 01:30:22;;;;;;;24.65;13.80;;;;;;;8.26;63.60;100515.35;1753669;80;21890;-70
2021/09/16 01:32:49;;;;;;;29.52;13.62;;;;;;;8.24;63.62;100525.63;1753796;80;21041;-70
2021/09/16 01:35:16;;;;;;;21.65;12.75;;;;;;;8.20;63.68;100530.26;1754415;80;21082;-70
2021/09/16 01:37:42;;;;;;;24.77;14.13;;;;;;;8.19;63.79;100536.44;1749996;80;21400;-70
2021/09/16 01:40:11;;;;;;;25.92;13.50;;;;;;;8.16;63.74;100536.66;1751000;80;20992;-70
2021/09/16 01:42:42;;;;;;;25.17;13.90;;;;;;;8.12;63.82;100534.34;1766251;80;21830;-70
2021/09/16 01:45:12;;;;;;;25.57;13.83;;;;;;;8.09;63.88;100535.84;1737372;82;20965;-70
2021/09/16 01:47:39;;;;;;;25.82;12.98;;;;;;;8.06;63.99;100533.42;1702833;83;21085;-70
2021/09/16 01:50:07;;;;;;;27.25;13.32;;;;;;;8.04;64.01;100537.00;1685683;82;21037;-70
2021/09/16 01:52:33;;;;;;;24.18;13.80;;;;;;;8.02;64.02;100531.01;1721001;82;20964;-71
2021/09/16 01:55:03;;;;;;;25.50;14.18;;;;;;;8.01;64.04;100535.06;1772476;80;23024;-70
2021/09/16 01:57:32;;;;;;;23.27;13.35;;;;;;;7.99;64.15;100531.66;1749195;80;20981;-72
2021/09/16 02:00:01;;;;;;;27.82;13.05;;;;;;;7.97;64.17;100536.19;1746020;80;21635;-71
2021/09/16 02:02:29;;;;;;;24.87;13.10;;;;;;;7.95;64.18;100538.92;1756408;80;20929;-71
2021/09/16 02:04:57;;;;;;;25.37;12.88;;;;;;;7.94;64.21;100542.50;1757425;80;20908;-70
2021/09/16 02:07:24;;;;;;;23.80;13.05;;;;;;;7.94;64.29;100539.88;1768077;80;21756;-70
2021/09/16 02:09:52;;;;;;;23.07;12.20;;;;;;;7.94;64.47;100541.19;1776224;80;20932;-70
2021/09/16 02:12:19;;;;;;;21.62;12.60;;;;;;;7.92;64.58;100541.77;1762850;80;20960;-70
2021/09/16 02:14:47;;;;;;;21.80;12.63;;;;;;;7.90;64.57;100548.05;1757215;80;20984;-70
2021/09/16 02:17:13;;;;;;;20.90;11.55;;;;;;;7.86;64.61;100542.63;1758992;80;20920;-70
2021/09/16 02:19:39;;;;;;;18.70;11.85;;;;;;;7.84;64.69;100547.99;1769070;80;22454;-70
2021/09/16 02:22:06;;;;;;;22.95;11.45;;;;;;;7.81;64.69;100544.23;1753971;80;21040;-70
2021/09/16 02:24:34;;;;;;;19.12;11.57;;;;;;;7.79;64.67;100542.17;1753576;80;21582;-70
2021/09/16 02:27:01;;;;;;;23.22;12.20;;;;;;;7.77;64.85;100549.80;1776712;80;20995;-71
2021/09/16 02:29:27;;;;;;;21.40;12.07;;;;;;;7.74;64.84;100541.17;1740142;80;20992;-71
2021/09/16 02:31:53;;;;;;;18.37;11.63;;;;;;;7.73;64.81;100541.28;1754236;80;21839;-70
2021/09/16 02:34:20;;;;;;;20.30;11.43;;;;;;;7.70;64.86;100534.41;1748549;80;20977;-70
2021/09/16 02:36:47;;;;;;;21.48;11.38;;;;;;;7.69;64.85;100534.52;1772188;80;20973;-70
2021/09/16 02:39:15;;;;;;;21.65;11.63;;;;;;;7.68;64.85;100534.98;1759251;80;21028;-70
2021/09/16 02:41:42;;;;;;;23.65;11.60;;;;;;;7.67;64.88;100531.15;1760709;80;21083;-70
2021/09/16 02:44:08;;;;;;;18.12;10.65;;;;;;;7.65;64.89;100532.56;1747721;82;21879;-70
2021/09/16 02:46:34;;;;;;;20.85;10.43;;;;;;;7.64;64.96;100536.61;1751974;80;21103;-71
2021/09/16 02:49:01;;;;;;;16.60;10.15;;;;;;;7.61;65.11;100538.95;1753838;80;21444;-70
2021/09/16 02:51:28;;;;;;;16.57;9.95;;;;;;;7.59;65.16;100543.94;1767586;80;20985;-70
2021/09/16 02:53:56;;;;;;;17.07;10.08;;;;;;;7.54;65.16;100535.05;1755052;80;21024;-70
2021/09/16 02:56:23;;;;;;;14.85;9.60;;;;;;;7.51;65.19;100539.64;1752796;80;21779;-70
2021/09/16 02:58:50;;;;;;;17.85;10.30;;;;;;;7.48;65.27;100545.94;1750751;80;20948;-70
2021/09/16 03:01:16;;;;;;;19.30;9.65;;;;;;;7.46;65.31;100543.89;1763590;80;20992;-71
2021/09/16 03:03:42;;;;;;;17.42;9.75;;;;;;;7.42;65.34;100543.69;1761397;80;21347;-70
2021/09/16 03:06:10;;;;;;;16.40;10.00;;;;;;;7.42;65.32;100548.48;1755953;80;20929;-71
2021/09/16 03:08:38;;;;;;;16.27;9.55;;;;;;;7.39;65.35;100546.05;1769017;79;21075;-70
2021/09/16 03:11:05;;;;;;;15.55;9.38;;;;;;;7.38;65.49;100547.47;1769176;80;21009;-70
2021/09/16 03:13:32;;;;;;;17.45;10.23;;;;;;;7.38;65.59;100543.05;1748341;80;20942;-70
2021/09/16 03:15:59;;;;;;;16.40;10.13;;;;;;;7.38;65.73;100541.74;1765574;80;21004;-71
2021/09/16 03:18:25;;;;;;;17.70;10.08;;;;;;;7.42;65.84;100544.53;1755263;80;21494;-70
2021/09/16 03:20:52;;;;;;;21.40;11.18;;;;;;;7.44;65.90;100545.78;1772411;80;22255;-71
2021/09/16 03:23:19;;;;;;;17.82;10.15;;;;;;;7.48;66.09;100543.78;1772721;80;20972;-70
2021/09/16 03:25:45;;;;;;;18.98;11.10;;;;;;;7.54;66.24;100543.41;1762680;80;21016;-71
2021/09/16 03:28:12;;;;;;;20.23;11.78;;;;;;;7.60;66.36;100542.99;1752425;80;20925;-70
2021/09/16 03:30:40;;;;;;;22.90;12.47;;;;;;;7.65;66.29;100540.45;1764609;80;20968;-71
2021/09/16 03:33:07;;;;;;;21.85;12.70;;;;;;;7.73;66.22;100543.44;1768142;80;22291;-71
2021/09/16 03:35:33;;;;;;;22.20;12.18;;;;;;;7.81;66.20;100548.17;1764667;80;21418;-71
2021/09/16 03:38:00;;;;;;;21.93;12.33;;;;;;;7.86;66.25;100546.10;1748127;80;20964;-71
2021/09/16 03:40:27;;;;;;;21.12;12.40;;;;;;;7.95;66.37;100548.60;1761729;80;21059;-71
2021/09/16 03:42:54;;;;;;;23.47;12.63;;;;;;;8.04;66.42;100551.47;1748671;80;20954;-71
2021/09/16 03:45:20;;;;;;;32.90;13.50;;;;;;;8.13;66.45;100551.81;1752955;80;21817;-71
2021/09/16 03:47:47;;;;;;;26.27;13.60;;;;;;;8.21;66.47;100551.67;1755155;80;20963;-71
2021/09/16 03:50:13;;;;;;;24.47;13.95;;;;;;;8.29;66.56;100551.14;1761298;80;20988;-71
2021/09/16 03:52:40;;;;;;;35.40;19.10;;;;;;;8.36;66.54;100551.61;1736851;82;21009;-71
2021/09/16 03:55:09;;;;;;;46.92;26.52;;;;;;;8.44;66.46;100549.31;1712630;82;21072;-71
2021/09/16 03:57:35;;;;;;;69.45;39.23;;;;;;;8.50;66.36;100545.80;1709769;82;21720;-71
2021/09/16 04:00:07;;;;;;;61.92;32.63;;;;;;;8.58;66.37;100552.67;1697527;83;21079;-71
2021/09/16 04:02:34;;;;;;;57.33;30.25;;;;;;;8.66;66.39;100548.68;1714321;82;20970;-71
2021/09/16 04:05:02;;;;;;;56.98;32.15;;;;;;;8.77;66.41;100546.15;1753360;79;21020;-72
2021/09/16 04:07:46;;;;;;;58.83;32.93;;;;;;;8.85;66.36;100559.63;1768308;80;20980;-70
2021/09/16 04:10:12;;;;;;;68.30;35.08;;;;;;;8.94;66.22;100555.52;1755294;80;21787;-70
2021/09/16 04:12:40;;;;;;;65.70;35.60;;;;;;;9.05;66.19;100559.09;1754723;80;20976;-70
2021/09/16 04:15:09;;;;;;;55.40;29.72;;;;;;;9.13;66.12;100562.03;1727316;80;21418;-70
2021/09/16 04:17:35;;;;;;;41.58;24.10;;;;;;;9.21;65.88;100560.66;1766835;80;21020;-71
2021/09/16 04:20:01;;;;;;;42.98;23.80;;;;;;;9.29;65.55;100562.28;1742157;80;20920;-70
2021/09/16 04:22:30;;;;;;;37.03;22.30;;;;;;;9.36;65.33;100566.14;1717292;82;20962;-72
2021/09/16 04:24:56;;;;;;;43.75;23.12;;;;;;;9.42;65.28;100570.51;1717693;82;21045;-71
2021/09/16 04:27:24;;;;;;;40.83;21.97;;;;;;;9.52;65.24;100569.85;1696687;84;21441;-71
2021/09/16 04:29:50;;;;;;;44.98;24.12;;;;;;;9.60;65.23;100563.55;1704265;83;21409;-67
2021/09/16 04:32:17;;;;;;;41.25;23.18;;;;;;;9.68;65.12;100566.48;1706688;84;21021;-67
2021/09/16 04:34:43;;;;;;;38.83;23.25;;;;;;;9.78;64.98;100567.98;1717957;83;21817;-69
2021/09/16 04:37:10;;;;;;;43.83;24.55;;;;;;;9.86;64.86;100570.42;1722339;82;20950;-70
2021/09/16 04:39:36;;;;;;;39.18;22.70;;;;;;;9.94;64.83;100573.34;1696351;83;21068;-69
2021/09/16 04:42:05;;;;;;;35.92;20.88;;;;;;;10.02;64.73;100574.07;1755324;80;20988;-69
2021/09/16 04:44:33;;;;;;;36.25;21.00;;;;;;;10.10;64.71;100577.47;1758246;80;21012;-70
2021/09/16 04:46:59;;;;;;;37.15;20.43;;;;;;;10.17;64.69;100570.79;1755065;80;21771;-70
2021/09/16 04:49:27;;;;;;;43.38;20.00;;;;;;;10.26;64.67;100576.73;1744871;80;21403;-70
2021/09/16 04:51:54;;;;;;;54.48;19.98;;;;;;;10.33;64.63;100577.97;1767308;80;20933;-71
2021/09/16 04:54:21;;;;;;;36.10;17.07;;;;;;;10.42;64.56;100573.77;1726970;82;21364;-70
2021/09/16 04:56:48;;;;;;;38.58;17.00;;;;;;;10.47;64.48;100568.52;1768346;80;21071;-68
2021/09/16 04:59:14;;;;;;;30.20;16.20;;;;;;;10.54;64.35;100568.89;1752040;79;22236;-71
2021/09/16 05:01:42;;;;;;;32.08;16.48;;;;;;;10.58;64.34;100564.57;1755068;80;21063;-70
2021/09/16 05:04:09;;;;;;;35.15;15.65;;;;;;;10.65;64.33;100574.67;1756227;80;20992;-70
2021/09/16 05:06:35;;;;;;;30.92;16.05;;;;;;;10.71;64.31;100568.45;1730362;82;21291;-70
2021/09/16 05:09:01;;;;;;;23.38;14.80;;;;;;;10.77;64.27;100565.32;1758499;80;20939;-71
2021/09/16 05:11:28;;;;;;;24.90;14.90;;;;;;;10.83;64.30;100562.22;1748987;80;21791;-71
2021/09/16 05:13:54;;;;;;;33.20;14.28;;;;;;;10.91;64.25;100558.14;1748850;80;21051;-71
2021/09/16 05:16:21;;;;;;;31.97;14.83;;;;;;;10.98;64.13;100557.52;1764019;80;21004;-70
2021/09/16 05:18:50;;;;;;;33.50;14.43;;;;;;;11.04;63.95;100559.70;1756759;80;20955;-70
2021/09/16 05:21:16;;;;;;;35.85;15.23;;;;;;;11.12;63.73;100561.27;1763870;80;21000;-71
2021/09/16 05:23:43;;;;;;;27.60;14.05;;;;;;;11.19;63.60;100558.95;1773749;80;21828;-69
2021/09/16 05:26:10;;;;;;;35.85;15.00;;;;;;;11.28;63.65;100564.84;1770063;80;21098;-70
2021/09/16 05:28:37;;;;;;;33.13;15.35;;;;;;;11.39;63.66;100560.89;1743416;82;21062;-70
2021/09/16 05:31:05;;;;;;;32.93;14.68;;;;;;;11.53;63.63;100565.06;1747939;80;21541;-69
2021/09/16 05:33:33;;;;;;;26.62;14.47;;;;;;;11.67;63.46;100566.09;1749925;80;22874;-71
2021/09/16 05:36:02;;;;;;;28.00;14.40;;;;;;;11.80;63.26;100564.67;1759792;80;21775;-70
2021/09/16 05:38:30;;;;;;;29.92;14.83;;;;;;;11.92;63.01;100568.12;1769838;80;21037;-69
2021/09/16 05:40:58;;;;;;;30.25;13.95;;;;;;;12.04;62.74;100573.23;1764317;80;21011;-71
2021/09/16 05:43:24;;;;;;;30.30;13.72;;;;;;;12.17;62.59;100574.89;1781164;80;21000;-70
2021/09/16 05:45:51;;;;;;;30.80;14.13;;;;;;;12.30;62.52;100577.70;1782094;80;21034;-70
2021/09/16 05:48:20;;;;;;;27.45;14.33;;;;;;;12.43;62.41;100577.51;1758656;80;22217;-70
2021/09/16 05:50:46;;;;;;;27.85;13.80;;;;;;;12.59;62.12;100581.05;1755857;80;21019;-71
2021/09/16 05:53:12;;;;;;;25.43;14.23;;;;;;;12.73;61.86;100574.56;1781930;80;21042;-71
2021/09/16 05:55:41;;;;;;;29.75;13.88;;;;;;;12.86;61.57;100576.05;1781280;80;21028;-70
2021/09/16 05:58:07;;;;;;;21.80;12.78;;;;;;;13.00;61.31;100566.89;1773442;80;21055;-70
2021/09/16 06:00:35;;;;;;;26.65;13.22;;;;;;;13.14;61.11;100561.73;1769096;80;21824;-72
2021/09/16 06:03:01;;;;;;;28.40;13.35;;;;;;;13.30;60.97;100565.23;1756782;80;20988;-74
2021/09/16 06:05:28;;;;;;;24.32;13.50;;;;;;;13.45;60.71;100571.85;1756931;80;21008;-69
2021/09/16 06:07:54;;;;;;;25.65;13.03;;;;;;;13.62;60.44;100571.20;1752345;80;20992;-71
2021/09/16 06:10:21;;;;;;;25.37;12.75;;;;;;;13.80;60.29;100578.48;1773464;80;21023;-70
2021/09/16 06:12:49;;;;;;;27.73;13.65;;;;;;;13.98;59.79;100574.17;1751049;82;21478;-71
2021/09/16 06:15:15;;;;;;;27.30;13.00;;;;;;;14.14;59.24;100569.16;1755976;80;21453;-71
2021/09/16 06:17:43;;;;;;;25.77;12.63;;;;;;;14.30;58.89;100571.25;1746817;80;21434;-72
2021/09/16 06:20:11;;;;;;;25.97;11.93;;;;;;;14.46;58.71;100578.66;1770487;80;20996;-70
2021/09/16 06:22:39;;;;;;;27.82;11.70;;;;;;;14.61;58.21;100567.95;1719733;82;21044;-71
2021/09/16 06:25:07;;;;;;;24.15;11.43;;;;;;;14.78;57.71;100571.20;1756597;80;21809;-70
2021/09/16 06:27:35;;;;;;;24.40;11.75;;;;;;;14.96;57.45;100574.42;1775745;80;21023;-70
2021/09/16 06:30:05;;;;;;;21.30;12.18;;;;;;;15.14;57.44;100562.03;1775799;80;21043;-70
2021/09/16 06:32:33;;;;;;;23.77;12.20;;;;;;;15.36;57.02;100570.16;1752282;80;21026;-69
2021/09/16 06:35:00;;;;;;;26.12;12.05;;;;;;;15.50;56.47;100570.14;1754025;80;21157;-70
2021/09/16 06:37:27;;;;;;;26.65;11.85;;;;;;;15.64;56.16;100564.36;1754732;80;21828;-69
2021/09/16 06:39:53;;;;;;;26.80;11.65;;;;;;;15.76;55.80;100563.64;1716352;82;21491;-69
2021/09/16 06:42:19;;;;;;;15.85;9.88;;;;;;;15.89;55.50;100554.28;1755685;80;21028;-70
2021/09/16 06:44:46;;;;;;;20.20;8.45;;;;;;;16.02;54.82;100550.77;1749288;80;21024;-69
2021/09/16 06:47:14;;;;;;;11.75;6.35;;;;;;;16.17;53.62;100554.20;1748248;80;21024;-70
2021/09/16 06:49:48;;;;;;;13.80;7.55;;;;;;;16.30;51.76;100554.14;1744400;80;21852;-69
2021/09/16 06:52:16;;;;;;;10.93;6.90;;;;;;;16.44;50.93;100554.59;1746436;80;21214;-70
2021/09/16 06:54:44;;;;;;;15.45;6.50;;;;;;;16.55;50.39;100555.67;1761319;80;21007;-71
2021/09/16 06:57:12;;;;;;;15.35;7.37;;;;;;;16.67;49.74;100553.58;1727027;80;21396;-69
2021/09/16 06:59:38;;;;;;;17.82;6.92;;;;;;;16.80;49.00;100556.72;1745788;80;21063;-70
2021/09/16 07:02:05;;;;;;;17.15;6.90;;;;;;;16.91;48.72;100553.77;1768983;80;21817;-69
2021/09/16 07:04:32;;;;;;;15.28;6.62;;;;;;;17.05;47.80;100550.50;1758268;80;21043;-69
2021/09/16 07:07:03;;;;;;;19.90;6.45;;;;;;;17.13;46.49;100555.87;1756133;80;21023;-69
2021/09/16 07:09:27;;;;;;;10.55;5.40;;;;;;;17.21;45.58;100559.09;1749191;80;21039;-69
2021/09/16 07:11:53;;;;;;;14.05;4.80;;;;;;;17.34;45.41;100559.97;1763432;80;21078;-69
2021/09/16 07:14:20;;;;;;;16.17;4.92;;;;;;;17.44;44.33;100564.67;1765485;80;23108;-70
2021/09/16 07:16:46;;;;;;;14.73;4.85;;;;;;;17.56;44.06;100558.53;1755395;80;21012;-69
2021/09/16 07:19:13;;;;;;;9.60;4.33;;;;;;;17.68;43.04;100560.77;1750804;80;21008;-70
2021/09/16 07:21:40;;;;;;;8.83;4.40;;;;;;;17.80;42.23;100563.16;1746000;80;21539;-68
2021/09/16 07:24:08;;;;;;;16.35;4.90;;;;;;;17.85;41.14;100558.97;1750458;80;21060;-68
2021/09/16 07:26:35;;;;;;;10.28;5.30;;;;;;;17.93;41.21;100561.66;1758351;80;21792;-68
2021/09/16 07:29:01;;;;;;;10.05;5.15;;;;;;;18.08;41.64;100561.02;1751917;80;21059;-69
2021/09/16 07:31:31;;;;;;;11.95;5.72;;;;;;;18.23;41.26;100565.53;1762936;80;21020;-68
2021/09/16 07:33:57;;;;;;;18.67;5.00;;;;;;;18.33;40.87;100564.02;1772742;80;21014;-68
2021/09/16 07:36:24;;;;;;;9.43;4.62;;;;;;;18.36;39.74;100572.23;1764420;80;21040;-68
2021/09/16 07:38:50;;;;;;;8.53;4.55;;;;;;;18.32;38.64;100562.36;1751653;80;22664;-69
2021/09/16 07:41:17;;;;;;;6.60;4.42;;;;;;;18.34;39.19;100568.40;1759988;80;20980;-70
2021/09/16 07:43:43;;;;;;;12.90;6.15;;;;;;;18.46;38.48;100570.23;1777135;80;21035;-69
2021/09/16 07:46:11;;;;;;;12.60;7.30;;;;;;;18.55;40.02;100575.41;1777209;80;21021;-69
2021/09/16 07:48:39;;;;;;;14.47;6.75;;;;;;;18.66;42.87;100574.75;1777404;80;21012;-68
2021/09/16 07:51:06;;;;;;;11.85;6.28;;;;;;;18.80;42.62;100574.05;1775196;80;21778;-68
2021/09/16 07:53:32;;;;;;;13.68;6.03;;;;;;;18.92;42.60;100569.20;1746779;80;20992;-68
2021/09/16 07:55:59;;;;;;;11.30;5.53;;;;;;;18.95;41.58;100564.33;1750014;80;21016;-68
2021/09/16 07:58:26;;;;;;;10.45;4.62;;;;;;;18.99;41.35;100570.99;1749097;80;21013;-68
2021/09/16 08:00:52;;;;;;;12.15;5.00;;;;;;;19.10;40.46;100560.41;1749290;80;21078;-67
2021/09/16 08:03:19;;;;;;;10.45;4.90;;;;;;;19.25;40.24;100554.69;1760058;80;22591;-67
2021/09/16 08:05:46;;;;;;;8.05;5.00;;;;;;;19.38;39.90;100552.78;1770391;80;21039;-67
2021/09/16 08:08:13;;;;;;;12.03;5.28;;;;;;;19.47;39.65;100553.58;1746832;80;21011;-66
2021/09/16 08:10:39;;;;;;;9.15;4.92;;;;;;;19.56;38.99;100552.56;1751047;80;21032;-67
2021/09/16 08:13:07;;;;;;;9.98;5.50;;;;;;;19.59;39.15;100550.86;1746447;82;21445;-67
2021/09/16 08:15:34;;;;;;;9.85;5.20;;;;;;;19.72;39.26;100547.12;1747352;80;21808;-68
2021/09/16 08:18:01;;;;;;;12.03;4.85;;;;;;;19.87;39.42;100545.83;1770568;80;21012;-67
2021/09/16 08:20:28;;;;;;;9.43;5.20;;;;;;;20.05;39.54;100550.40;1760379;80;21015;-67
2021/09/16 08:22:54;;;;;;;7.20;4.20;;;;;;;20.22;38.79;100551.11;1756421;80;21048;-68
2021/09/16 08:25:20;;;;;;;6.40;3.75;;;;;;;20.36;37.64;100550.31;1748719;80;21474;-67
2021/09/16 08:27:47;;;;;;;8.70;4.85;;;;;;;20.45;37.34;100548.42;1752840;80;21764;-67
2021/09/16 08:30:13;;;;;;;11.43;4.67;;;;;;;20.46;37.18;100552.30;1746877;82;20980;-68
2021/09/16 08:32:40;;;;;;;9.15;4.58;;;;;;;20.42;37.14;100545.57;1747354;80;21003;-68
2021/09/16 08:35:09;;;;;;;8.33;4.60;;;;;;;20.35;37.14;100549.16;1752230;80;21100;-68
2021/09/16 08:37:35;;;;;;;7.28;4.03;;;;;;;20.40;38.02;100542.75;1746769;82;21538;-69
2021/09/16 08:40:03;;;;;;;9.73;5.10;;;;;;;20.52;37.86;100546.17;1761778;80;22833;-68
2021/09/16 08:42:30;;;;;;;6.87;4.40;;;;;;;20.66;37.47;100545.06;1774088;80;21007;-68
2021/09/16 08:44:57;;;;;;;10.78;4.47;;;;;;;20.72;37.34;100541.12;1774270;80;21391;-69
2021/09/16 08:47:27;;;;;;;5.80;3.95;;;;;;;20.84;37.26;100542.83;1756190;80;21463;-68
2021/09/16 08:49:54;;;;;;;5.03;3.47;;;;;;;20.93;36.80;100547.09;1766865;80;21004;-68
2021/09/16 08:52:22;;;;;;;7.15;3.30;;;;;;;21.03;36.46;100542.28;1767909;80;21813;-69
2021/09/16 08:54:49;;;;;;;10.68;3.27;;;;;;;21.13;35.97;100547.37;1773710;80;21455;-69
2021/09/16 08:57:16;;;;;;;7.12;2.62;;;;;;;21.14;35.52;100541.84;1736738;82;21031;-69
2021/09/16 08:59:45;;;;;;;19.57;3.08;;;;;;;21.15;33.72;100544.02;1743129;82;21055;-69
2021/09/16 09:02:12;;;;;;;3.95;2.50;;;;;;;21.00;33.69;100535.95;1759271;80;21514;-68
2021/09/16 09:04:40;;;;;;;8.30;2.25;;;;;;;20.97;33.42;100544.89;1760449;80;21783;-69
2021/09/16 09:07:08;;;;;;;3.10;2.30;;;;;;;20.88;33.73;100546.83;1749275;80;21040;-67
2021/09/16 09:09:35;;;;;;;3.72;2.08;;;;;;;20.89;34.44;100540.95;1750219;80;21035;-67
2021/09/16 09:12:12;;;;;;;5.37;2.08;;;;;;;21.01;34.39;100541.64;1762730;80;20928;-67
2021/09/16 09:14:47;;;;;;;3.87;1.72;;;;;;;21.18;33.37;100544.97;1744462;82;20929;-66
2021/09/16 09:17:25;;;;;;;4.42;2.00;;;;;;;21.28;32.43;100542.03;1729832;82;22994;-66
2021/09/16 09:19:55;;;;;;;3.87;1.60;;;;;;;21.50;32.41;100548.28;1753809;80;20961;-66
2021/09/16 09:22:29;;;;;;;4.00;1.60;;;;;;;21.67;31.73;100550.56;1745916;80;21036;-66
2021/09/16 09:25:01;;;;;;;2.17;1.60;;;;;;;21.84;31.17;100541.76;1754144;80;21506;-66
2021/09/16 09:27:32;;;;;;;5.85;2.00;;;;;;;21.98;30.02;100542.71;1763732;80;20985;-66
2021/09/16 09:30:12;;;;;;;3.00;1.80;;;;;;;22.09;29.80;100544.91;1758155;80;21754;-66
2021/09/16 09:32:58;;;;;;;2.95;1.55;;;;;;;22.21;30.06;100546.60;1750317;80;21482;-66
2021/09/16 09:35:29;;;;;;;4.92;1.70;;;;;;;22.36;29.67;100541.95;1750405;80;20949;-66
2021/09/16 09:37:56;;;;;;;4.50;1.65;;;;;;;22.34;28.51;100545.36;1747300;80;21019;-67
2021/09/16 09:40:36;;;;;;;8.78;1.50;;;;;;;22.38;28.68;100541.23;1747489;80;21052;-66
2021/09/16 09:43:30;;;;;;;3.65;1.40;;;;;;;22.36;28.83;100541.13;1755881;80;21772;-66
2021/09/16 09:46:12;;;;;;;4.78;1.90;;;;;;;22.41;29.26;100544.08;1775086;80;21008;-66
2021/09/16 09:48:43;;;;;;;2.22;1.62;;;;;;;22.56;28.72;100543.45;1751075;80;21427;-68
2021/09/16 09:51:12;;;;;;;6.30;1.60;;;;;;;22.64;28.54;100535.23;1744603;82;21015;-67
2021/09/16 09:53:42;;;;;;;3.35;1.70;;;;;;;22.59;29.11;100537.70;1750909;80;20995;-68
2021/09/16 09:56:17;;;;;;;5.90;1.62;;;;;;;22.63;29.20;100529.53;1773474;80;21773;-68
2021/09/16 09:58:43;;;;;;;2.90;1.42;;;;;;;22.93;29.24;100530.17;1775358;80;20937;-70
2021/09/16 10:01:33;;;;;;;5.70;1.45;;;;;;;23.16;29.07;100526.34;1772993;80;21059;-69
2021/09/16 10:04:27;;;;;;;7.42;1.60;;;;;;;23.45;29.44;100517.98;1775199;80;20933;-68
2021/09/16 10:06:57;;;;;;;4.95;1.60;;;;;;;23.75;28.62;100516.34;1755805;80;21035;-68
2021/09/16 10:09:23;;;;;;;1.70;1.20;;;;;;;23.79;27.69;100521.63;1775157;80;21819;-68
2021/09/16 10:11:51;;;;;;;2.05;1.27;;;;;;;23.87;29.14;100516.87;1768623;80;20930;-68
2021/09/16 10:14:20;;;;;;;2.10;1.15;;;;;;;24.11;27.87;100517.30;1773653;80;20952;-68
2021/09/16 10:16:47;;;;;;;5.03;1.00;;;;;;;24.07;27.50;100516.89;1765224;80;21068;-68
2021/09/16 10:19:15;;;;;;;2.95;1.00;;;;;;;23.95;28.11;100510.45;1744504;80;20937;-69
2021/09/16 10:21:42;;;;;;;2.08;1.25;;;;;;;24.09;28.46;100514.81;1753204;80;21878;-68
2021/09/16 10:24:16;;;;;;;3.47;1.27;;;;;;;24.31;27.46;100511.41;1765766;80;21012;-69
2021/09/16 10:26:49;;;;;;;2.52;1.20;;;;;;;24.44;28.36;100504.67;1741263;80;21355;-68
2021/09/16 10:29:32;;;;;;;1.27;0.60;;;;;;;24.69;28.44;100502.13;1775278;80;21007;-68
2021/09/16 10:32:13;;;;;;;1.37;0.90;;;;;;;24.85;27.38;100500.86;1763764;80;21438;-68
2021/09/16 10:34:44;;;;;;;5.67;1.30;;;;;;;24.88;27.00;100496.37;1775527;80;21802;-68
2021/09/16 10:37:17;;;;;;;2.20;1.32;;;;;;;24.81;27.47;100496.92;1735501;82;20941;-69
2021/09/16 10:39:45;;;;;;;2.62;1.62;;;;;;;24.96;27.17;100499.36;1751698;80;21036;-68
2021/09/16 10:42:12;;;;;;;3.10;1.42;;;;;;;25.02;26.42;100498.03;1766703;80;20980;-70
2021/09/16 10:44:42;;;;;;;1.85;1.30;;;;;;;25.08;27.06;100501.21;1752496;81;21000;-72
2021/09/16 10:47:19;;;;;;;4.15;1.50;;;;;;;25.17;26.60;100499.11;1759107;80;22194;-69
2021/09/16 10:49:49;;;;;;;4.72;1.50;;;;;;;25.37;27.64;100498.48;1752379;82;21027;-69
2021/09/16 10:52:24;;;;;;;3.27;1.27;;;;;;;25.60;27.13;100492.56;1768940;80;21343;-70
2021/09/16 10:54:54;;;;;;;5.72;1.62;;;;;;;25.83;26.42;100496.08;1782704;80;21425;-70
2021/09/16 10:57:32;;;;;;;3.05;1.90;;;;;;;25.95;26.82;100494.31;1777966;80;20964;-70
2021/09/16 11:00:03;;;;;;;3.25;1.98;;;;;;;26.20;25.72;100494.34;1783419;80;21487;-69
2021/09/16 11:02:48;;;;;;;3.85;1.77;;;;;;;26.15;25.38;100488.77;1776328;80;20913;-70
2021/09/16 11:05:22;;;;;;;3.62;1.85;;;;;;;26.09;25.68;100488.81;1772361;80;32936;-70
2021/09/16 11:07:52;;;;;;;4.75;1.62;;;;;;;26.06;25.73;100492.80;1777773;80;21035;-67
2021/09/16 11:10:32;;;;;;;4.75;2.60;;;;;;;26.08;25.80;100496.11;1774637;80;20984;-68
2021/09/16 11:13:06;;;;;;;5.80;2.30;;;;;;;25.95;25.15;100486.19;1752469;81;21846;-68
2021/09/16 11:15:39;;;;;;;;;;;;;;;25.68;26.15;100483.36;1751691;80;20980;-69
2021/09/16 11:18:14;;;;;;;4.17;1.62;;;;;;;25.76;26.58;100486.34;1782676;79;20361;-69
2021/09/16 11:20:43;;;;;;;3.40;2.05;;;;;;;26.04;26.76;100481.34;1771761;80;21447;-68
2021/09/16 11:23:11;;;;;;;5.87;1.70;;;;;;;26.29;25.84;100473.23;1754038;80;20933;-67
2021/09/16 11:25:45;;;;;;;5.42;1.70;;;;;;;26.36;25.69;100481.30;1752547;80;21779;-67